sensor_id;sensor_type;location;lat;lon;timestamp;temperature;humidity
6822;DHT22;3449;48.728;8.968;2023-08-08T00:01:17;11.50;99.90
6822;DHT22;3449;48.728;8.968;2023-08-08T00:03:44;11.60;99.90
6822;DHT22;3449;48.728;8.968;2023-08-08T00:06:11;11.70;99.90
6822;DHT22;3449;48.728;8.968;2023-08-08T00:08:38;11.70;99.90
6822;DHT22;3449;48.728;8.968;2023-08-08T00:11:05;11.90;99.90
6822;DHT22;3449;48.728;8.968;2023-08-08T00:13:31;11.90;99.90
6822;DHT22;3449;48.728;8.968;2023-08-08T00:15:58;12.00;99.90
6822;DHT22;3449;48.728;8.968;2023-08-08T00:18:26;12.10;99.90
6822;DHT22;3449;48.728;8.968;2023-08-08T00:20:53;12.10;99.90
6822;DHT22;3449;48.728;8.968;2023-08-08T00:23:20;12.20;99.90
6822;DHT22;3449;48.728;8.968;2023-08-08T00:25:47;12.20;99.90
6822;DHT22;3449;48.728;8.968;2023-08-08T00:28:17;12.30;99.90
6822;DHT22;3449;48.728;8.968;2023-08-08T00:30:44;12.30;99.90
6822;DHT22;3449;48.728;8.968;2023-08-08T00:33:11;12.30;99.90
6822;DHT22;3449;48.728;8.968;2023-08-08T00:35:39;12.40;99.90
6822;DHT22;3449;48.728;8.968;2023-08-08T00:38:06;12.40;99.90
6822;DHT22;3449;48.728;8.968;2023-08-08T00:40:32;12.50;99.90
6822;DHT22;3449;48.728;8.968;2023-08-08T00:42:59;12.40;99.90
6822;DHT22;3449;48.728;8.968;2023-08-08T00:45:27;12.50;99.90
6822;DHT22;3449;48.728;8.968;2023-08-08T00:47:54;12.50;99.90
6822;DHT22;3449;48.728;8.968;2023-08-08T00:50:21;12.50;99.90
6822;DHT22;3449;48.728;8.968;2023-08-08T00:52:49;12.50;99.90
6822;DHT22;3449;48.728;8.968;2023-08-08T00:55:16;12.50;99.90
6822;DHT22;3449;48.728;8.968;2023-08-08T00:57:44;12.50;99.90
6822;DHT22;3449;48.728;8.968;2023-08-08T01:00:11;12.50;99.90
6822;DHT22;3449;48.728;8.968;2023-08-08T01:02:38;12.50;99.90
6822;DHT22;3449;48.728;8.968;2023-08-08T01:05:05;12.50;99.90
6822;DHT22;3449;48.728;8.968;2023-08-08T01:07:38;12.60;99.90
6822;DHT22;3449;48.728;8.968;2023-08-08T01:10:11;12.60;99.90
6822;DHT22;3449;48.728;8.968;2023-08-08T01:12:40;12.60;99.90
6822;DHT22;3449;48.728;8.968;2023-08-08T01:15:09;12.60;99.90
6822;DHT22;3449;48.728;8.968;2023-08-08T01:17:37;12.60;99.90
6822;DHT22;3449;48.728;8.968;2023-08-08T01:20:05;12.50;99.90
6822;DHT22;3449;48.728;8.968;2023-08-08T01:22:37;12.50;99.90
6822;DHT22;3449;48.728;8.968;2023-08-08T01:25:07;12.40;99.90
6822;DHT22;3449;48.728;8.968;2023-08-08T01:27:34;12.40;99.90
6822;DHT22;3449;48.728;8.968;2023-08-08T01:30:01;12.30;99.90
6822;DHT22;3449;48.728;8.968;2023-08-08T01:32:29;12.20;99.90
6822;DHT22;3449;48.728;8.968;2023-08-08T01:34:56;12.20;99.90
6822;DHT22;3449;48.728;8.968;2023-08-08T01:37:27;12.10;99.90
6822;DHT22;3449;48.728;8.968;2023-08-08T01:39:57;12.10;99.90
6822;DHT22;3449;48.728;8.968;2023-08-08T01:42:27;12.00;99.90
6822;DHT22;3449;48.728;8.968;2023-08-08T01:44:55;12.00;99.90
6822;DHT22;3449;48.728;8.968;2023-08-08T01:47:23;12.00;99.90
6822;DHT22;3449;48.728;8.968;2023-08-08T01:49:50;12.00;99.90
6822;DHT22;3449;48.728;8.968;2023-08-08T01:52:17;12.00;99.90
6822;DHT22;3449;48.728;8.968;2023-08-08T01:54:43;12.00;99.90
6822;DHT22;3449;48.728;8.968;2023-08-08T01:57:10;12.00;99.90
6822;DHT22;3449;48.728;8.968;2023-08-08T01:59:38;11.90;99.90
6822;DHT22;3449;48.728;8.968;2023-08-08T02:02:05;11.90;99.90
6822;DHT22;3449;48.728;8.968;2023-08-08T02:04:33;11.90;99.90
6822;DHT22;3449;48.728;8.968;2023-08-08T02:06:59;11.90;99.90
6822;DHT22;3449;48.728;8.968;2023-08-08T02:09:29;11.90;99.90
6822;DHT22;3449;48.728;8.968;2023-08-08T02:11:56;11.90;99.90
6822;DHT22;3449;48.728;8.968;2023-08-08T02:14:23;11.90;99.90
6822;DHT22;3449;48.728;8.968;2023-08-08T02:16:51;11.90;99.90
6822;DHT22;3449;48.728;8.968;2023-08-08T02:19:18;11.90;99.90
6822;DHT22;3449;48.728;8.968;2023-08-08T02:21:45;11.90;99.90
6822;DHT22;3449;48.728;8.968;2023-08-08T02:24:11;11.80;99.90
6822;DHT22;3449;48.728;8.968;2023-08-08T02:26:38;11.80;99.90
6822;DHT22;3449;48.728;8.968;2023-08-08T02:29:05;11.80;99.90
6822;DHT22;3449;48.728;8.968;2023-08-08T02:31:32;11.80;99.90
6822;DHT22;3449;48.728;8.968;2023-08-08T02:34:00;11.80;99.90
6822;DHT22;3449;48.728;8.968;2023-08-08T02:36:27;11.80;99.90
6822;DHT22;3449;48.728;8.968;2023-08-08T02:38:54;11.80;99.90
6822;DHT22;3449;48.728;8.968;2023-08-08T02:41:21;11.90;99.90
6822;DHT22;3449;48.728;8.968;2023-08-08T02:43:48;11.90;99.90
6822;DHT22;3449;48.728;8.968;2023-08-08T02:46:15;11.80;99.90
6822;DHT22;3449;48.728;8.968;2023-08-08T02:48:42;11.80;99.90
6822;DHT22;3449;48.728;8.968;2023-08-08T02:51:10;11.80;99.90
6822;DHT22;3449;48.728;8.968;2023-08-08T02:53:37;11.80;99.90
6822;DHT22;3449;48.728;8.968;2023-08-08T02:56:04;11.80;99.90
6822;DHT22;3449;48.728;8.968;2023-08-08T02:58:31;11.80;99.90
6822;DHT22;3449;48.728;8.968;2023-08-08T03:00:58;11.80;99.90
6822;DHT22;3449;48.728;8.968;2023-08-08T03:03:25;11.70;99.90
6822;DHT22;3449;48.728;8.968;2023-08-08T03:05:51;11.80;99.90
6822;DHT22;3449;48.728;8.968;2023-08-08T03:08:19;11.70;99.90
6822;DHT22;3449;48.728;8.968;2023-08-08T03:10:46;11.70;99.90
6822;DHT22;3449;48.728;8.968;2023-08-08T03:13:13;11.70;99.90
6822;DHT22;3449;48.728;8.968;2023-08-08T03:15:40;11.70;99.90
6822;DHT22;3449;48.728;8.968;2023-08-08T03:18:07;11.70;99.90
6822;DHT22;3449;48.728;8.968;2023-08-08T03:20:34;11.70;99.90
6822;DHT22;3449;48.728;8.968;2023-08-08T03:23:00;11.70;99.90
6822;DHT22;3449;48.728;8.968;2023-08-08T03:25:31;11.70;99.90
6822;DHT22;3449;48.728;8.968;2023-08-08T03:27:58;11.70;99.90
6822;DHT22;3449;48.728;8.968;2023-08-08T03:30:24;11.70;99.90
6822;DHT22;3449;48.728;8.968;2023-08-08T03:32:51;11.70;99.90
6822;DHT22;3449;48.728;8.968;2023-08-08T03:35:18;11.70;99.90
6822;DHT22;3449;48.728;8.968;2023-08-08T03:37:45;11.70;99.90
6822;DHT22;3449;48.728;8.968;2023-08-08T03:40:12;11.70;99.90
6822;DHT22;3449;48.728;8.968;2023-08-08T03:42:41;11.70;99.90
6822;DHT22;3449;48.728;8.968;2023-08-08T03:45:09;11.80;99.90
6822;DHT22;3449;48.728;8.968;2023-08-08T03:47:36;11.80;99.90
6822;DHT22;3449;48.728;8.968;2023-08-08T03:50:03;12.00;99.90
6822;DHT22;3449;48.728;8.968;2023-08-08T03:52:30;11.90;99.90
6822;DHT22;3449;48.728;8.968;2023-08-08T03:54:59;11.90;99.90
6822;DHT22;3449;48.728;8.968;2023-08-08T03:57:26;12.00;99.90
6822;DHT22;3449;48.728;8.968;2023-08-08T03:59:54;12.10;99.90
6822;DHT22;3449;48.728;8.968;2023-08-08T04:02:21;12.20;99.90
6822;DHT22;3449;48.728;8.968;2023-08-08T04:04:48;12.10;99.90
6822;DHT22;3449;48.728;8.968;2023-08-08T04:07:15;12.20;99.90
6822;DHT22;3449;48.728;8.968;2023-08-08T04:09:42;12.20;99.90
6822;DHT22;3449;48.728;8.968;2023-08-08T04:12:09;12.20;99.90
6822;DHT22;3449;48.728;8.968;2023-08-08T04:14:36;12.20;99.90
6822;DHT22;3449;48.728;8.968;2023-08-08T04:17:04;12.20;99.90
6822;DHT22;3449;48.728;8.968;2023-08-08T04:19:31;12.20;99.90
6822;DHT22;3449;48.728;8.968;2023-08-08T04:21:58;12.10;99.90
6822;DHT22;3449;48.728;8.968;2023-08-08T04:24:25;12.10;99.90
6822;DHT22;3449;48.728;8.968;2023-08-08T04:26:51;12.10;99.90
6822;DHT22;3449;48.728;8.968;2023-08-08T04:29:18;12.00;99.90
6822;DHT22;3449;48.728;8.968;2023-08-08T04:31:45;12.00;99.90
6822;DHT22;3449;48.728;8.968;2023-08-08T04:34:13;12.00;99.90
6822;DHT22;3449;48.728;8.968;2023-08-08T04:36:40;11.90;99.90
6822;DHT22;3449;48.728;8.968;2023-08-08T04:39:07;11.90;99.90
6822;DHT22;3449;48.728;8.968;2023-08-08T04:41:34;11.90;99.90
6822;DHT22;3449;48.728;8.968;2023-08-08T04:44:01;11.90;99.90
6822;DHT22;3449;48.728;8.968;2023-08-08T04:46:27;11.90;99.90
6822;DHT22;3449;48.728;8.968;2023-08-08T04:48:54;11.90;99.90
6822;DHT22;3449;48.728;8.968;2023-08-08T04:51:22;11.90;99.90
6822;DHT22;3449;48.728;8.968;2023-08-08T04:53:49;11.90;99.90
6822;DHT22;3449;48.728;8.968;2023-08-08T04:56:16;11.90;99.90
6822;DHT22;3449;48.728;8.968;2023-08-08T04:58:43;11.80;99.90
6822;DHT22;3449;48.728;8.968;2023-08-08T05:01:10;11.80;99.90
6822;DHT22;3449;48.728;8.968;2023-08-08T05:03:39;11.80;99.90
6822;DHT22;3449;48.728;8.968;2023-08-08T05:06:07;11.90;99.90
6822;DHT22;3449;48.728;8.968;2023-08-08T05:08:35;11.90;99.90
6822;DHT22;3449;48.728;8.968;2023-08-08T05:11:02;11.80;99.90
6822;DHT22;3449;48.728;8.968;2023-08-08T05:13:28;11.80;99.90
6822;DHT22;3449;48.728;8.968;2023-08-08T05:15:55;11.90;99.90
6822;DHT22;3449;48.728;8.968;2023-08-08T05:18:22;11.90;99.90
6822;DHT22;3449;48.728;8.968;2023-08-08T05:20:49;11.90;99.90
6822;DHT22;3449;48.728;8.968;2023-08-08T05:23:16;12.00;99.90
6822;DHT22;3449;48.728;8.968;2023-08-08T05:25:45;12.00;99.90
6822;DHT22;3449;48.728;8.968;2023-08-08T05:28:11;12.10;99.90
6822;DHT22;3449;48.728;8.968;2023-08-08T05:30:38;12.10;99.90
6822;DHT22;3449;48.728;8.968;2023-08-08T05:33:05;12.20;99.90
6822;DHT22;3449;48.728;8.968;2023-08-08T05:35:32;12.30;99.90
6822;DHT22;3449;48.728;8.968;2023-08-08T05:37:59;12.30;99.90
6822;DHT22;3449;48.728;8.968;2023-08-08T05:40:26;12.40;99.90
6822;DHT22;3449;48.728;8.968;2023-08-08T05:42:54;12.50;99.90
6822;DHT22;3449;48.728;8.968;2023-08-08T05:45:21;12.60;99.90
6822;DHT22;3449;48.728;8.968;2023-08-08T05:47:47;12.70;99.90
6822;DHT22;3449;48.728;8.968;2023-08-08T05:50:14;12.80;99.90
6822;DHT22;3449;48.728;8.968;2023-08-08T05:52:41;12.90;99.90
6822;DHT22;3449;48.728;8.968;2023-08-08T05:55:08;13.00;99.90
6822;DHT22;3449;48.728;8.968;2023-08-08T05:57:35;13.30;99.90
6822;DHT22;3449;48.728;8.968;2023-08-08T06:00:05;13.50;99.90
6822;DHT22;3449;48.728;8.968;2023-08-08T06:02:36;13.70;99.90
6822;DHT22;3449;48.728;8.968;2023-08-08T06:05:03;13.90;99.90
6822;DHT22;3449;48.728;8.968;2023-08-08T06:07:30;14.10;99.90
6822;DHT22;3449;48.728;8.968;2023-08-08T06:09:57;14.30;99.90
6822;DHT22;3449;48.728;8.968;2023-08-08T06:12:24;14.40;99.90
6822;DHT22;3449;48.728;8.968;2023-08-08T06:14:51;14.60;99.90
6822;DHT22;3449;48.728;8.968;2023-08-08T06:17:19;14.80;99.90
6822;DHT22;3449;48.728;8.968;2023-08-08T06:19:46;15.00;99.90
6822;DHT22;3449;48.728;8.968;2023-08-08T06:22:13;15.10;99.90
6822;DHT22;3449;48.728;8.968;2023-08-08T06:24:39;15.20;99.90
6822;DHT22;3449;48.728;8.968;2023-08-08T06:27:06;15.30;99.90
6822;DHT22;3449;48.728;8.968;2023-08-08T06:29:33;15.40;99.90
6822;DHT22;3449;48.728;8.968;2023-08-08T06:32:00;15.50;99.90
6822;DHT22;3449;48.728;8.968;2023-08-08T06:34:28;15.70;99.90
6822;DHT22;3449;48.728;8.968;2023-08-08T06:36:55;15.80;99.90
6822;DHT22;3449;48.728;8.968;2023-08-08T06:39:22;15.90;99.90
6822;DHT22;3449;48.728;8.968;2023-08-08T06:41:49;16.00;99.90
6822;DHT22;3449;48.728;8.968;2023-08-08T06:44:16;16.10;99.90
6822;DHT22;3449;48.728;8.968;2023-08-08T06:46:42;16.10;99.90
6822;DHT22;3449;48.728;8.968;2023-08-08T06:49:09;16.10;99.90
6822;DHT22;3449;48.728;8.968;2023-08-08T06:51:37;16.20;99.90
6822;DHT22;3449;48.728;8.968;2023-08-08T06:54:04;16.30;99.90
6822;DHT22;3449;48.728;8.968;2023-08-08T06:56:31;16.40;99.90
6822;DHT22;3449;48.728;8.968;2023-08-08T06:58:58;16.50;99.90
6822;DHT22;3449;48.728;8.968;2023-08-08T07:01:25;16.70;99.90
6822;DHT22;3449;48.728;8.968;2023-08-08T07:03:52;16.70;99.90
6822;DHT22;3449;48.728;8.968;2023-08-08T07:06:19;16.80;99.90
6822;DHT22;3449;48.728;8.968;2023-08-08T07:08:47;16.80;99.90
6822;DHT22;3449;48.728;8.968;2023-08-08T07:11:14;16.90;99.90
6822;DHT22;3449;48.728;8.968;2023-08-08T07:13:40;16.90;99.90
6822;DHT22;3449;48.728;8.968;2023-08-08T07:16:07;17.00;99.90
6822;DHT22;3449;48.728;8.968;2023-08-08T07:18:34;17.10;99.90
6822;DHT22;3449;48.728;8.968;2023-08-08T07:21:01;17.20;99.90
6822;DHT22;3449;48.728;8.968;2023-08-08T07:23:28;17.30;99.90
6822;DHT22;3449;48.728;8.968;2023-08-08T07:25:58;17.40;99.90
6822;DHT22;3449;48.728;8.968;2023-08-08T07:28:25;17.50;99.90
6822;DHT22;3449;48.728;8.968;2023-08-08T07:30:52;17.50;99.90
6822;DHT22;3449;48.728;8.968;2023-08-08T07:33:18;17.40;99.90
6822;DHT22;3449;48.728;8.968;2023-08-08T07:35:45;17.60;99.90
6822;DHT22;3449;48.728;8.968;2023-08-08T07:38:12;17.80;99.90
6822;DHT22;3449;48.728;8.968;2023-08-08T07:40:39;17.90;99.90
6822;DHT22;3449;48.728;8.968;2023-08-08T07:43:08;18.20;99.90
6822;DHT22;3449;48.728;8.968;2023-08-08T07:45:35;18.10;99.90
6822;DHT22;3449;48.728;8.968;2023-08-08T07:48:03;18.20;99.90
6822;DHT22;3449;48.728;8.968;2023-08-08T07:50:33;17.90;99.90
6822;DHT22;3449;48.728;8.968;2023-08-08T07:53:00;17.70;99.90
6822;DHT22;3449;48.728;8.968;2023-08-08T07:55:27;17.70;99.90
6822;DHT22;3449;48.728;8.968;2023-08-08T07:57:53;17.80;99.90
6822;DHT22;3449;48.728;8.968;2023-08-08T08:00:22;17.90;99.90
6822;DHT22;3449;48.728;8.968;2023-08-08T08:02:48;17.70;99.90
6822;DHT22;3449;48.728;8.968;2023-08-08T08:05:15;17.70;99.90
6822;DHT22;3449;48.728;8.968;2023-08-08T08:07:42;17.60;99.90
6822;DHT22;3449;48.728;8.968;2023-08-08T08:10:11;17.50;99.90
6822;DHT22;3449;48.728;8.968;2023-08-08T08:12:39;17.50;99.90
6822;DHT22;3449;48.728;8.968;2023-08-08T08:15:08;17.50;99.90
6822;DHT22;3449;48.728;8.968;2023-08-08T08:17:36;17.60;99.90
6822;DHT22;3449;48.728;8.968;2023-08-08T08:20:05;17.60;99.90
6822;DHT22;3449;48.728;8.968;2023-08-08T08:22:36;17.50;99.90
6822;DHT22;3449;48.728;8.968;2023-08-08T08:25:03;17.50;99.90
6822;DHT22;3449;48.728;8.968;2023-08-08T08:27:30;17.50;99.90
6822;DHT22;3449;48.728;8.968;2023-08-08T08:29:57;17.60;99.90
6822;DHT22;3449;48.728;8.968;2023-08-08T08:32:24;17.60;99.90
6822;DHT22;3449;48.728;8.968;2023-08-08T08:34:52;17.80;99.90
6822;DHT22;3449;48.728;8.968;2023-08-08T08:37:19;18.10;99.90
6822;DHT22;3449;48.728;8.968;2023-08-08T08:39:46;18.30;99.90
6822;DHT22;3449;48.728;8.968;2023-08-08T08:42:13;18.70;99.90
6822;DHT22;3449;48.728;8.968;2023-08-08T08:44:40;18.90;99.90
6822;DHT22;3449;48.728;8.968;2023-08-08T08:47:10;19.00;99.90
6822;DHT22;3449;48.728;8.968;2023-08-08T08:49:39;19.20;99.90
6822;DHT22;3449;48.728;8.968;2023-08-08T08:52:11;19.30;99.90
6822;DHT22;3449;48.728;8.968;2023-08-08T08:54:38;19.10;99.90
6822;DHT22;3449;48.728;8.968;2023-08-08T08:57:05;19.10;99.90
6822;DHT22;3449;48.728;8.968;2023-08-08T08:59:33;19.10;99.90
6822;DHT22;3449;48.728;8.968;2023-08-08T09:02:01;19.20;99.90
6822;DHT22;3449;48.728;8.968;2023-08-08T09:04:29;19.50;99.90
6822;DHT22;3449;48.728;8.968;2023-08-08T09:06:56;19.70;99.90
6822;DHT22;3449;48.728;8.968;2023-08-08T09:09:24;19.90;99.90
6822;DHT22;3449;48.728;8.968;2023-08-08T09:11:53;19.80;99.90
6822;DHT22;3449;48.728;8.968;2023-08-08T09:14:21;20.00;99.90
6822;DHT22;3449;48.728;8.968;2023-08-08T09:16:49;20.50;99.90
6822;DHT22;3449;48.728;8.968;2023-08-08T09:19:17;20.70;99.90
6822;DHT22;3449;48.728;8.968;2023-08-08T09:21:44;20.80;99.90
6822;DHT22;3449;48.728;8.968;2023-08-08T09:24:11;21.00;99.90
6822;DHT22;3449;48.728;8.968;2023-08-08T09:26:40;21.10;99.90
6822;DHT22;3449;48.728;8.968;2023-08-08T09:29:08;21.10;99.90
6822;DHT22;3449;48.728;8.968;2023-08-08T09:31:35;20.90;99.90
6822;DHT22;3449;48.728;8.968;2023-08-08T09:34:03;20.60;99.90
6822;DHT22;3449;48.728;8.968;2023-08-08T09:36:30;20.20;99.90
6822;DHT22;3449;48.728;8.968;2023-08-08T09:38:57;20.00;99.90
6822;DHT22;3449;48.728;8.968;2023-08-08T09:41:24;20.00;99.90
6822;DHT22;3449;48.728;8.968;2023-08-08T09:43:54;19.90;99.90
6822;DHT22;3449;48.728;8.968;2023-08-08T09:46:21;19.80;99.90
6822;DHT22;3449;48.728;8.968;2023-08-08T09:48:49;20.20;99.90
6822;DHT22;3449;48.728;8.968;2023-08-08T09:51:17;20.60;99.90
6822;DHT22;3449;48.728;8.968;2023-08-08T09:53:44;20.70;99.90
6822;DHT22;3449;48.728;8.968;2023-08-08T09:56:14;20.90;99.90
6822;DHT22;3449;48.728;8.968;2023-08-08T09:58:41;21.00;99.90
6822;DHT22;3449;48.728;8.968;2023-08-08T10:01:10;21.10;99.90
6822;DHT22;3449;48.728;8.968;2023-08-08T10:03:38;21.40;99.90
6822;DHT22;3449;48.728;8.968;2023-08-08T10:06:08;21.50;99.90
6822;DHT22;3449;48.728;8.968;2023-08-08T10:08:35;21.20;99.90
6822;DHT22;3449;48.728;8.968;2023-08-08T10:11:05;21.00;99.90
6822;DHT22;3449;48.728;8.968;2023-08-08T10:13:32;20.60;99.90
6822;DHT22;3449;48.728;8.968;2023-08-08T10:16:04;20.60;99.90
6822;DHT22;3449;48.728;8.968;2023-08-08T10:18:32;20.50;99.90
6822;DHT22;3449;48.728;8.968;2023-08-08T10:20:59;20.60;99.90
6822;DHT22;3449;48.728;8.968;2023-08-08T10:23:34;21.10;99.90
6822;DHT22;3449;48.728;8.968;2023-08-08T10:26:01;21.50;99.90
6822;DHT22;3449;48.728;8.968;2023-08-08T10:28:32;21.50;99.90
6822;DHT22;3449;48.728;8.968;2023-08-08T10:31:00;21.40;99.90
6822;DHT22;3449;48.728;8.968;2023-08-08T10:33:39;21.60;99.90
6822;DHT22;3449;48.728;8.968;2023-08-08T10:36:08;21.90;99.90
6822;DHT22;3449;48.728;8.968;2023-08-08T10:38:40;22.00;99.90
6822;DHT22;3449;48.728;8.968;2023-08-08T10:41:09;21.80;99.90
6822;DHT22;3449;48.728;8.968;2023-08-08T10:43:37;21.30;99.90
6822;DHT22;3449;48.728;8.968;2023-08-08T10:46:04;21.00;99.90
6822;DHT22;3449;48.728;8.968;2023-08-08T10:48:30;20.80;99.90
6822;DHT22;3449;48.728;8.968;2023-08-08T10:50:58;21.40;99.90
6822;DHT22;3449;48.728;8.968;2023-08-08T10:53:27;22.00;99.90
6822;DHT22;3449;48.728;8.968;2023-08-08T10:55:59;22.30;99.90
6822;DHT22;3449;48.728;8.968;2023-08-08T10:58:35;22.30;99.90
6822;DHT22;3449;48.728;8.968;2023-08-08T11:01:03;21.80;99.90
6822;DHT22;3449;48.728;8.968;2023-08-08T11:03:34;22.20;99.90
6822;DHT22;3449;48.728;8.968;2023-08-08T11:06:02;22.40;99.90
6822;DHT22;3449;48.728;8.968;2023-08-08T11:08:31;22.80;99.90
6822;DHT22;3449;48.728;8.968;2023-08-08T11:10:59;23.40;99.90
6822;DHT22;3449;48.728;8.968;2023-08-08T11:13:26;23.50;99.90
6822;DHT22;3449;48.728;8.968;2023-08-08T11:15:54;23.20;99.90
6822;DHT22;3449;48.728;8.968;2023-08-08T11:18:21;22.70;99.90
6822;DHT22;3449;48.728;8.968;2023-08-08T11:20:49;22.60;99.90
6822;DHT22;3449;48.728;8.968;2023-08-08T11:23:16;22.60;99.90
6822;DHT22;3449;48.728;8.968;2023-08-08T11:25:46;22.60;99.90
6822;DHT22;3449;48.728;8.968;2023-08-08T11:28:13;22.30;99.90
6822;DHT22;3449;48.728;8.968;2023-08-08T11:30:42;22.40;99.90
6822;DHT22;3449;48.728;8.968;2023-08-08T11:33:09;22.20;99.90
6822;DHT22;3449;48.728;8.968;2023-08-08T11:35:37;22.40;99.90
6822;DHT22;3449;48.728;8.968;2023-08-08T11:38:05;22.40;99.90
6822;DHT22;3449;48.728;8.968;2023-08-08T11:40:32;22.90;99.90
6822;DHT22;3449;48.728;8.968;2023-08-08T11:43:01;23.50;99.90
6822;DHT22;3449;48.728;8.968;2023-08-08T11:45:28;23.80;99.90
6822;DHT22;3449;48.728;8.968;2023-08-08T11:47:55;23.90;99.90
6822;DHT22;3449;48.728;8.968;2023-08-08T11:50:24;23.10;99.90
6822;DHT22;3449;48.728;8.968;2023-08-08T11:52:53;22.50;99.90
6822;DHT22;3449;48.728;8.968;2023-08-08T11:55:21;22.20;99.90
6822;DHT22;3449;48.728;8.968;2023-08-08T11:57:49;22.20;99.90
6822;DHT22;3449;48.728;8.968;2023-08-08T12:00:18;22.30;99.90
6822;DHT22;3449;48.728;8.968;2023-08-08T12:02:45;22.10;99.90
6822;DHT22;3449;48.728;8.968;2023-08-08T12:05:13;22.00;99.90
6822;DHT22;3449;48.728;8.968;2023-08-08T12:07:42;22.30;99.90
6822;DHT22;3449;48.728;8.968;2023-08-08T12:10:15;22.40;99.90
6822;DHT22;3449;48.728;8.968;2023-08-08T12:12:43;22.60;99.90
6822;DHT22;3449;48.728;8.968;2023-08-08T12:15:10;22.90;99.90
6822;DHT22;3449;48.728;8.968;2023-08-08T12:17:39;22.90;99.90
6822;DHT22;3449;48.728;8.968;2023-08-08T12:20:07;22.80;99.90
6822;DHT22;3449;48.728;8.968;2023-08-08T12:22:35;22.70;99.90
6822;DHT22;3449;48.728;8.968;2023-08-08T12:25:02;22.70;99.90
6822;DHT22;3449;48.728;8.968;2023-08-08T12:27:30;22.60;99.90
6822;DHT22;3449;48.728;8.968;2023-08-08T12:29:58;22.50;99.90
6822;DHT22;3449;48.728;8.968;2023-08-08T12:32:26;23.00;99.90
6822;DHT22;3449;48.728;8.968;2023-08-08T12:34:55;23.10;99.90
6822;DHT22;3449;48.728;8.968;2023-08-08T12:37:22;23.20;99.90
6822;DHT22;3449;48.728;8.968;2023-08-08T12:39:50;23.30;99.90
6822;DHT22;3449;48.728;8.968;2023-08-08T12:42:17;23.20;99.90
6822;DHT22;3449;48.728;8.968;2023-08-08T12:44:44;23.10;99.90
6822;DHT22;3449;48.728;8.968;2023-08-08T12:47:12;22.90;99.90
6822;DHT22;3449;48.728;8.968;2023-08-08T12:49:39;22.60;99.90
6822;DHT22;3449;48.728;8.968;2023-08-08T12:52:07;22.40;99.90
6822;DHT22;3449;48.728;8.968;2023-08-08T12:54:34;21.90;99.90
6822;DHT22;3449;48.728;8.968;2023-08-08T12:57:02;21.50;99.90
6822;DHT22;3449;48.728;8.968;2023-08-08T12:59:29;21.10;99.90
6822;DHT22;3449;48.728;8.968;2023-08-08T13:01:56;20.90;99.90
6822;DHT22;3449;48.728;8.968;2023-08-08T13:04:23;20.60;99.90
6822;DHT22;3449;48.728;8.968;2023-08-08T13:06:50;20.40;99.90
6822;DHT22;3449;48.728;8.968;2023-08-08T13:09:19;20.40;99.90
6822;DHT22;3449;48.728;8.968;2023-08-08T13:11:45;20.60;99.90
6822;DHT22;3449;48.728;8.968;2023-08-08T13:14:12;21.10;99.90
6822;DHT22;3449;48.728;8.968;2023-08-08T13:16:39;22.00;99.90
6822;DHT22;3449;48.728;8.968;2023-08-08T13:19:06;22.80;99.90
6822;DHT22;3449;48.728;8.968;2023-08-08T13:21:33;23.10;99.90
6822;DHT22;3449;48.728;8.968;2023-08-08T13:24:00;23.10;99.90
6822;DHT22;3449;48.728;8.968;2023-08-08T13:26:28;23.10;99.90
6822;DHT22;3449;48.728;8.968;2023-08-08T13:28:55;23.60;99.90
6822;DHT22;3449;48.728;8.968;2023-08-08T13:31:22;23.20;99.90
6822;DHT22;3449;48.728;8.968;2023-08-08T13:33:49;23.40;99.90
6822;DHT22;3449;48.728;8.968;2023-08-08T13:36:15;23.90;99.90
6822;DHT22;3449;48.728;8.968;2023-08-08T13:38:42;23.70;99.90
6822;DHT22;3449;48.728;8.968;2023-08-08T13:41:09;23.80;99.90
6822;DHT22;3449;48.728;8.968;2023-08-08T13:43:37;23.90;99.90
6822;DHT22;3449;48.728;8.968;2023-08-08T13:46:04;23.90;99.90
6822;DHT22;3449;48.728;8.968;2023-08-08T13:48:35;24.20;99.90
6822;DHT22;3449;48.728;8.968;2023-08-08T13:51:02;24.50;99.90
6822;DHT22;3449;48.728;8.968;2023-08-08T13:53:29;24.60;99.90
6822;DHT22;3449;48.728;8.968;2023-08-08T13:55:56;24.50;99.90
6822;DHT22;3449;48.728;8.968;2023-08-08T13:58:29;24.00;99.90
6822;DHT22;3449;48.728;8.968;2023-08-08T14:00:57;23.90;99.90
6822;DHT22;3449;48.728;8.968;2023-08-08T14:03:24;24.20;99.90
6822;DHT22;3449;48.728;8.968;2023-08-08T14:05:51;24.40;99.90
6822;DHT22;3449;48.728;8.968;2023-08-08T14:08:19;24.00;99.90
6822;DHT22;3449;48.728;8.968;2023-08-08T14:10:46;23.70;99.90
6822;DHT22;3449;48.728;8.968;2023-08-08T14:13:13;23.10;99.90
6822;DHT22;3449;48.728;8.968;2023-08-08T14:15:40;22.70;99.90
6822;DHT22;3449;48.728;8.968;2023-08-08T14:18:09;22.50;99.90
6822;DHT22;3449;48.728;8.968;2023-08-08T14:20:36;22.20;99.90
6822;DHT22;3449;48.728;8.968;2023-08-08T14:23:03;22.00;99.90
6822;DHT22;3449;48.728;8.968;2023-08-08T14:25:31;21.70;99.90
6822;DHT22;3449;48.728;8.968;2023-08-08T14:27:58;21.60;99.90
6822;DHT22;3449;48.728;8.968;2023-08-08T14:30:25;21.70;99.90
6822;DHT22;3449;48.728;8.968;2023-08-08T14:32:53;22.10;99.90
6822;DHT22;3449;48.728;8.968;2023-08-08T14:35:21;22.20;99.90
6822;DHT22;3449;48.728;8.968;2023-08-08T14:37:48;22.60;99.90
6822;DHT22;3449;48.728;8.968;2023-08-08T14:40:15;22.80;99.90
6822;DHT22;3449;48.728;8.968;2023-08-08T14:42:42;22.60;99.90
6822;DHT22;3449;48.728;8.968;2023-08-08T14:45:09;22.40;99.90
6822;DHT22;3449;48.728;8.968;2023-08-08T14:47:36;22.10;99.90
6822;DHT22;3449;48.728;8.968;2023-08-08T14:50:04;21.80;99.90
6822;DHT22;3449;48.728;8.968;2023-08-08T14:52:33;21.50;99.90
6822;DHT22;3449;48.728;8.968;2023-08-08T14:54:59;21.00;99.90
6822;DHT22;3449;48.728;8.968;2023-08-08T14:57:26;20.70;99.90
6822;DHT22;3449;48.728;8.968;2023-08-08T14:59:53;20.60;99.90
6822;DHT22;3449;48.728;8.968;2023-08-08T15:02:20;20.60;99.90
6822;DHT22;3449;48.728;8.968;2023-08-08T15:04:47;20.70;99.90
6822;DHT22;3449;48.728;8.968;2023-08-08T15:07:13;20.90;99.90
6822;DHT22;3449;48.728;8.968;2023-08-08T15:09:42;21.40;99.90
6822;DHT22;3449;48.728;8.968;2023-08-08T15:12:08;22.00;99.90
6822;DHT22;3449;48.728;8.968;2023-08-08T15:14:35;22.70;99.90
6822;DHT22;3449;48.728;8.968;2023-08-08T15:17:02;23.30;99.90
6822;DHT22;3449;48.728;8.968;2023-08-08T15:19:29;23.40;99.90
6822;DHT22;3449;48.728;8.968;2023-08-08T15:21:56;22.80;99.90
6822;DHT22;3449;48.728;8.968;2023-08-08T15:24:23;22.10;99.90
6822;DHT22;3449;48.728;8.968;2023-08-08T15:26:51;21.70;99.90
6822;DHT22;3449;48.728;8.968;2023-08-08T15:29:18;21.30;99.90
6822;DHT22;3449;48.728;8.968;2023-08-08T15:31:45;21.00;99.90
6822;DHT22;3449;48.728;8.968;2023-08-08T15:34:12;20.90;99.90
6822;DHT22;3449;48.728;8.968;2023-08-08T15:36:38;20.70;99.90
6822;DHT22;3449;48.728;8.968;2023-08-08T15:39:05;20.60;99.90
6822;DHT22;3449;48.728;8.968;2023-08-08T15:41:32;20.40;99.90
6822;DHT22;3449;48.728;8.968;2023-08-08T15:44:00;20.40;99.90
6822;DHT22;3449;48.728;8.968;2023-08-08T15:46:27;20.20;99.90
6822;DHT22;3449;48.728;8.968;2023-08-08T15:48:54;20.10;99.90
6822;DHT22;3449;48.728;8.968;2023-08-08T15:51:21;20.00;99.90
6822;DHT22;3449;48.728;8.968;2023-08-08T15:53:48;20.10;99.90
6822;DHT22;3449;48.728;8.968;2023-08-08T15:56:15;20.60;99.90
6822;DHT22;3449;48.728;8.968;2023-08-08T15:58:41;21.20;99.90
6822;DHT22;3449;48.728;8.968;2023-08-08T16:01:10;21.90;99.90
6822;DHT22;3449;48.728;8.968;2023-08-08T16:03:36;22.20;99.90